sensor_id;sensor_type;location;lat;lon;timestamp;P1;durP1;ratioP1;P2;durP2;ratioP2
16870;SDS011;8552;48.120;-1.456;2022-07-31T00:00:36;3.70;;;2.67;;
16870;SDS011;8552;48.120;-1.456;2022-07-31T00:03:01;3.10;;;2.75;;
16870;SDS011;8552;48.120;-1.456;2022-07-31T00:05:27;3.78;;;2.70;;
16870;SDS011;8552;48.120;-1.456;2022-07-31T00:07:53;2.88;;;2.65;;
16870;SDS011;8552;48.120;-1.456;2022-07-31T00:10:19;2.85;;;2.53;;
16870;SDS011;8552;48.120;-1.456;2022-07-31T00:12:44;4.15;;;2.38;;
16870;SDS011;8552;48.120;-1.456;2022-07-31T00:15:10;2.75;;;2.53;;
16870;SDS011;8552;48.120;-1.456;2022-07-31T00:17:40;2.92;;;2.72;;
16870;SDS011;8552;48.120;-1.456;2022-07-31T00:20:07;3.45;;;2.80;;
16870;SDS011;8552;48.120;-1.456;2022-07-31T00:22:37;3.75;;;2.92;;
16870;SDS011;8552;48.120;-1.456;2022-07-31T00:25:04;3.20;;;2.90;;
16870;SDS011;8552;48.120;-1.456;2022-07-31T00:27:30;4.07;;;2.95;;
16870;SDS011;8552;48.120;-1.456;2022-07-31T00:29:56;4.10;;;2.58;;
16870;SDS011;8552;48.120;-1.456;2022-07-31T00:32:22;2.63;;;2.10;;
16870;SDS011;8552;48.120;-1.456;2022-07-31T00:34:48;4.38;;;3.05;;
16870;SDS011;8552;48.120;-1.456;2022-07-31T00:37:14;4.95;;;2.92;;
16870;SDS011;8552;48.120;-1.456;2022-07-31T00:39:39;3.95;;;2.78;;
16870;SDS011;8552;48.120;-1.456;2022-07-31T00:42:15;3.78;;;2.90;;
16870;SDS011;8552;48.120;-1.456;2022-07-31T00:44:48;3.97;;;2.72;;
16870;SDS011;8552;48.120;-1.456;2022-07-31T00:47:14;4.78;;;2.97;;
16870;SDS011;8552;48.120;-1.456;2022-07-31T00:49:41;3.22;;;2.92;;
16870;SDS011;8552;48.120;-1.456;2022-07-31T00:52:07;4.55;;;3.08;;
16870;SDS011;8552;48.120;-1.456;2022-07-31T00:54:33;3.47;;;2.58;;
16870;SDS011;8552;48.120;-1.456;2022-07-31T00:56:59;5.25;;;3.03;;
16870;SDS011;8552;48.120;-1.456;2022-07-31T00:59:25;3.58;;;2.92;;
16870;SDS011;8552;48.120;-1.456;2022-07-31T01:01:52;3.72;;;3.20;;
16870;SDS011;8552;48.120;-1.456;2022-07-31T01:04:18;3.42;;;3.13;;
16870;SDS011;8552;48.120;-1.456;2022-07-31T01:06:44;3.47;;;2.85;;
16870;SDS011;8552;48.120;-1.456;2022-07-31T01:09:10;5.10;;;3.28;;
16870;SDS011;8552;48.120;-1.456;2022-07-31T01:11:59;4.70;;;3.28;;
16870;SDS011;8552;48.120;-1.456;2022-07-31T01:14:47;4.07;;;3.03;;
16870;SDS011;8552;48.120;-1.456;2022-07-31T01:17:16;4.35;;;2.90;;
16870;SDS011;8552;48.120;-1.456;2022-07-31T01:19:45;3.80;;;3.35;;
16870;SDS011;8552;48.120;-1.456;2022-07-31T01:28:17;3.28;;;2.88;;
16870;SDS011;8552;48.120;-1.456;2022-07-31T01:31:13;4.03;;;3.15;;
16870;SDS011;8552;48.120;-1.456;2022-07-31T01:33:47;4.05;;;3.08;;
16870;SDS011;8552;48.120;-1.456;2022-07-31T01:36:16;6.57;;;2.95;;
16870;SDS011;8552;48.120;-1.456;2022-07-31T01:38:46;3.90;;;3.50;;
16870;SDS011;8552;48.120;-1.456;2022-07-31T01:41:15;3.97;;;3.55;;
16870;SDS011;8552;48.120;-1.456;2022-07-31T01:43:45;3.53;;;3.22;;
16870;SDS011;8552;48.120;-1.456;2022-07-31T01:46:14;5.00;;;3.72;;
16870;SDS011;8552;48.120;-1.456;2022-07-31T01:48:43;3.58;;;3.25;;
16870;SDS011;8552;48.120;-1.456;2022-07-31T01:51:09;3.83;;;3.42;;
16870;SDS011;8552;48.120;-1.456;2022-07-31T01:53:36;3.53;;;3.05;;
16870;SDS011;8552;48.120;-1.456;2022-07-31T01:56:03;5.35;;;3.50;;
16870;SDS011;8552;48.120;-1.456;2022-07-31T01:58:34;4.70;;;3.40;;
16870;SDS011;8552;48.120;-1.456;2022-07-31T02:01:02;3.40;;;3.15;;
16870;SDS011;8552;48.120;-1.456;2022-07-31T02:03:30;3.47;;;3.17;;
16870;SDS011;8552;48.120;-1.456;2022-07-31T02:05:56;4.65;;;3.90;;
16870;SDS011;8552;48.120;-1.456;2022-07-31T02:08:24;3.58;;;3.22;;
16870;SDS011;8552;48.120;-1.456;2022-07-31T02:10:52;5.05;;;3.08;;
16870;SDS011;8552;48.120;-1.456;2022-07-31T02:13:18;3.85;;;3.50;;
16870;SDS011;8552;48.120;-1.456;2022-07-31T02:15:45;3.67;;;3.30;;
16870;SDS011;8552;48.120;-1.456;2022-07-31T02:18:12;3.58;;;3.28;;
16870;SDS011;8552;48.120;-1.456;2022-07-31T02:20:39;5.43;;;4.05;;
16870;SDS011;8552;48.120;-1.456;2022-07-31T02:23:06;4.20;;;3.80;;
16870;SDS011;8552;48.120;-1.456;2022-07-31T02:25:33;4.90;;;3.95;;
16870;SDS011;8552;48.120;-1.456;2022-07-31T02:28:02;4.00;;;3.50;;
16870;SDS011;8552;48.120;-1.456;2022-07-31T02:30:34;7.53;;;4.10;;
16870;SDS011;8552;48.120;-1.456;2022-07-31T02:33:02;6.43;;;3.70;;
16870;SDS011;8552;48.120;-1.456;2022-07-31T02:35:30;4.20;;;3.58;;
16870;SDS011;8552;48.120;-1.456;2022-07-31T02:37:56;5.50;;;4.22;;
16870;SDS011;8552;48.120;-1.456;2022-07-31T02:40:23;3.67;;;3.38;;
16870;SDS011;8552;48.120;-1.456;2022-07-31T02:42:50;4.40;;;4.00;;
16870;SDS011;8552;48.120;-1.456;2022-07-31T02:45:16;4.40;;;3.83;;
16870;SDS011;8552;48.120;-1.456;2022-07-31T02:47:43;5.47;;;4.00;;
16870;SDS011;8552;48.120;-1.456;2022-07-31T02:50:09;4.68;;;3.88;;
16870;SDS011;8552;48.120;-1.456;2022-07-31T02:52:36;5.82;;;4.20;;
16870;SDS011;8552;48.120;-1.456;2022-07-31T02:55:03;5.10;;;4.28;;
16870;SDS011;8552;48.120;-1.456;2022-07-31T02:57:29;5.32;;;3.83;;
16870;SDS011;8552;48.120;-1.456;2022-07-31T02:59:55;5.32;;;4.07;;
16870;SDS011;8552;48.120;-1.456;2022-07-31T03:02:21;5.30;;;4.05;;
16870;SDS011;8552;48.120;-1.456;2022-07-31T03:04:47;7.22;;;4.43;;
16870;SDS011;8552;48.120;-1.456;2022-07-31T03:07:13;6.10;;;4.38;;
16870;SDS011;8552;48.120;-1.456;2022-07-31T03:09:41;4.85;;;4.35;;
16870;SDS011;8552;48.120;-1.456;2022-07-31T03:12:07;5.00;;;4.25;;
16870;SDS011;8552;48.120;-1.456;2022-07-31T03:14:33;5.82;;;4.32;;
16870;SDS011;8552;48.120;-1.456;2022-07-31T03:17:00;11.07;;;4.35;;
16870;SDS011;8552;48.120;-1.456;2022-07-31T03:19:28;4.38;;;3.58;;
16870;SDS011;8552;48.120;-1.456;2022-07-31T03:21:56;5.63;;;3.75;;
16870;SDS011;8552;48.120;-1.456;2022-07-31T03:24:23;4.65;;;3.60;;
16870;SDS011;8552;48.120;-1.456;2022-07-31T03:26:50;4.63;;;4.20;;
16870;SDS011;8552;48.120;-1.456;2022-07-31T03:29:16;4.10;;;3.70;;
16870;SDS011;8552;48.120;-1.456;2022-07-31T03:31:43;6.10;;;4.18;;
16870;SDS011;8552;48.120;-1.456;2022-07-31T03:34:08;3.97;;;3.58;;
16870;SDS011;8552;48.120;-1.456;2022-07-31T03:36:35;6.22;;;4.22;;
16870;SDS011;8552;48.120;-1.456;2022-07-31T03:39:01;5.63;;;4.10;;
16870;SDS011;8552;48.120;-1.456;2022-07-31T03:41:27;6.30;;;3.97;;
16870;SDS011;8552;48.120;-1.456;2022-07-31T03:43:53;4.35;;;3.70;;
16870;SDS011;8552;48.120;-1.456;2022-07-31T03:46:19;4.45;;;4.05;;
16870;SDS011;8552;48.120;-1.456;2022-07-31T03:48:47;5.65;;;3.90;;
16870;SDS011;8552;48.120;-1.456;2022-07-31T03:51:15;6.47;;;4.18;;
16870;SDS011;8552;48.120;-1.456;2022-07-31T03:53:42;6.65;;;4.28;;
16870;SDS011;8552;48.120;-1.456;2022-07-31T03:56:09;5.75;;;3.88;;
16870;SDS011;8552;48.120;-1.456;2022-07-31T03:58:36;6.30;;;4.18;;
16870;SDS011;8552;48.120;-1.456;2022-07-31T04:01:02;5.18;;;4.68;;
16870;SDS011;8552;48.120;-1.456;2022-07-31T04:03:30;6.47;;;4.15;;
16870;SDS011;8552;48.120;-1.456;2022-07-31T04:05:56;6.50;;;4.25;;
16870;SDS011;8552;48.120;-1.456;2022-07-31T04:08:22;5.78;;;4.00;;
16870;SDS011;8552;48.120;-1.456;2022-07-31T04:10:47;5.97;;;4.20;;
16870;SDS011;8552;48.120;-1.456;2022-07-31T04:13:13;5.63;;;3.70;;
16870;SDS011;8552;48.120;-1.456;2022-07-31T04:15:39;4.78;;;3.92;;
16870;SDS011;8552;48.120;-1.456;2022-07-31T04:18:05;4.68;;;3.80;;
16870;SDS011;8552;48.120;-1.456;2022-07-31T04:20:30;4.65;;;3.60;;
16870;SDS011;8552;48.120;-1.456;2022-07-31T04:22:56;5.75;;;4.55;;
16870;SDS011;8552;48.120;-1.456;2022-07-31T04:25:22;4.65;;;3.58;;
16870;SDS011;8552;48.120;-1.456;2022-07-31T04:27:47;4.30;;;3.90;;
16870;SDS011;8552;48.120;-1.456;2022-07-31T04:30:13;4.78;;;4.38;;
16870;SDS011;8552;48.120;-1.456;2022-07-31T04:32:38;6.25;;;4.63;;
16870;SDS011;8552;48.120;-1.456;2022-07-31T04:35:04;5.10;;;4.03;;
16870;SDS011;8552;48.120;-1.456;2022-07-31T04:37:31;4.47;;;4.07;;
16870;SDS011;8552;48.120;-1.456;2022-07-31T04:39:57;4.40;;;3.92;;
16870;SDS011;8552;48.120;-1.456;2022-07-31T04:42:23;4.70;;;4.20;;
16870;SDS011;8552;48.120;-1.456;2022-07-31T04:44:49;3.95;;;3.58;;
16870;SDS011;8552;48.120;-1.456;2022-07-31T04:47:14;5.28;;;3.90;;
16870;SDS011;8552;48.120;-1.456;2022-07-31T04:49:40;4.25;;;3.70;;
16870;SDS011;8552;48.120;-1.456;2022-07-31T04:52:06;6.32;;;4.22;;
16870;SDS011;8552;48.120;-1.456;2022-07-31T04:54:32;5.85;;;4.03;;
16870;SDS011;8552;48.120;-1.456;2022-07-31T04:56:58;4.57;;;3.88;;
16870;SDS011;8552;48.120;-1.456;2022-07-31T04:59:24;5.35;;;4.07;;
16870;SDS011;8552;48.120;-1.456;2022-07-31T05:01:50;5.30;;;4.57;;
16870;SDS011;8552;48.120;-1.456;2022-07-31T05:04:16;7.03;;;3.80;;
16870;SDS011;8552;48.120;-1.456;2022-07-31T05:06:44;4.35;;;3.50;;
16870;SDS011;8552;48.120;-1.456;2022-07-31T05:09:12;5.07;;;4.18;;
16870;SDS011;8552;48.120;-1.456;2022-07-31T05:11:43;4.78;;;4.00;;
16870;SDS011;8552;48.120;-1.456;2022-07-31T05:14:11;4.22;;;3.83;;
16870;SDS011;8552;48.120;-1.456;2022-07-31T05:16:37;4.40;;;4.00;;
16870;SDS011;8552;48.120;-1.456;2022-07-31T05:19:03;5.55;;;4.47;;
16870;SDS011;8552;48.120;-1.456;2022-07-31T05:21:30;5.70;;;4.28;;
16870;SDS011;8552;48.120;-1.456;2022-07-31T05:23:56;5.97;;;4.25;;
16870;SDS011;8552;48.120;-1.456;2022-07-31T05:26:22;6.78;;;4.47;;
16870;SDS011;8552;48.120;-1.456;2022-07-31T05:28:50;4.95;;;4.13;;
16870;SDS011;8552;48.120;-1.456;2022-07-31T05:31:18;3.90;;;3.60;;
16870;SDS011;8552;48.120;-1.456;2022-07-31T05:33:45;5.28;;;4.60;;
16870;SDS011;8552;48.120;-1.456;2022-07-31T05:36:11;6.80;;;4.80;;
16870;SDS011;8552;48.120;-1.456;2022-07-31T05:38:37;4.82;;;3.90;;
16870;SDS011;8552;48.120;-1.456;2022-07-31T05:41:03;4.05;;;3.65;;
16870;SDS011;8552;48.120;-1.456;2022-07-31T05:43:28;5.63;;;4.30;;
16870;SDS011;8552;48.120;-1.456;2022-07-31T05:45:54;4.15;;;3.75;;
16870;SDS011;8552;48.120;-1.456;2022-07-31T05:48:20;6.72;;;4.20;;
16870;SDS011;8552;48.120;-1.456;2022-07-31T05:50:47;5.07;;;4.00;;
16870;SDS011;8552;48.120;-1.456;2022-07-31T05:53:14;4.43;;;3.92;;
16870;SDS011;8552;48.120;-1.456;2022-07-31T05:55:41;5.32;;;3.85;;
16870;SDS011;8552;48.120;-1.456;2022-07-31T05:58:07;4.68;;;4.20;;
16870;SDS011;8552;48.120;-1.456;2022-07-31T06:00:33;4.15;;;3.75;;
16870;SDS011;8552;48.120;-1.456;2022-07-31T06:02:59;4.60;;;4.07;;
16870;SDS011;8552;48.120;-1.456;2022-07-31T06:05:25;4.20;;;3.80;;
16870;SDS011;8552;48.120;-1.456;2022-07-31T06:07:51;4.72;;;3.90;;
16870;SDS011;8552;48.120;-1.456;2022-07-31T06:10:17;4.30;;;3.80;;
16870;SDS011;8552;48.120;-1.456;2022-07-31T06:12:43;4.03;;;3.50;;
16870;SDS011;8552;48.120;-1.456;2022-07-31T06:15:09;5.57;;;3.95;;
16870;SDS011;8552;48.120;-1.456;2022-07-31T06:17:37;5.03;;;3.97;;
16870;SDS011;8552;48.120;-1.456;2022-07-31T06:20:03;5.07;;;3.92;;
16870;SDS011;8552;48.120;-1.456;2022-07-31T06:22:29;3.97;;;3.63;;
16870;SDS011;8552;48.120;-1.456;2022-07-31T06:24:55;4.22;;;3.83;;
16870;SDS011;8552;48.120;-1.456;2022-07-31T06:27:20;6.75;;;4.30;;
16870;SDS011;8552;48.120;-1.456;2022-07-31T06:29:46;5.10;;;3.83;;
16870;SDS011;8552;48.120;-1.456;2022-07-31T06:32:13;4.40;;;3.67;;
16870;SDS011;8552;48.120;-1.456;2022-07-31T06:34:39;4.32;;;3.92;;
16870;SDS011;8552;48.120;-1.456;2022-07-31T06:37:05;5.10;;;4.43;;
16870;SDS011;8552;48.120;-1.456;2022-07-31T06:39:31;4.55;;;4.07;;
16870;SDS011;8552;48.120;-1.456;2022-07-31T06:41:58;3.88;;;3.58;;
16870;SDS011;8552;48.120;-1.456;2022-07-31T06:44:23;4.28;;;3.88;;
16870;SDS011;8552;48.120;-1.456;2022-07-31T06:46:49;5.75;;;3.85;;
16870;SDS011;8552;48.120;-1.456;2022-07-31T06:49:15;5.03;;;4.03;;
16870;SDS011;8552;48.120;-1.456;2022-07-31T06:51:42;4.43;;;4.03;;
16870;SDS011;8552;48.120;-1.456;2022-07-31T06:54:08;4.30;;;3.90;;
16870;SDS011;8552;48.120;-1.456;2022-07-31T06:56:35;3.92;;;3.58;;
16870;SDS011;8552;48.120;-1.456;2022-07-31T06:59:03;5.53;;;4.30;;
16870;SDS011;8552;48.120;-1.456;2022-07-31T07:01:34;4.60;;;4.05;;
16870;SDS011;8552;48.120;-1.456;2022-07-31T07:04:02;4.57;;;3.83;;
16870;SDS011;8552;48.120;-1.456;2022-07-31T07:06:28;4.00;;;3.60;;
16870;SDS011;8552;48.120;-1.456;2022-07-31T07:08:54;4.22;;;3.83;;
16870;SDS011;8552;48.120;-1.456;2022-07-31T07:11:19;4.57;;;3.97;;
16870;SDS011;8552;48.120;-1.456;2022-07-31T07:13:45;4.20;;;3.78;;
16870;SDS011;8552;48.120;-1.456;2022-07-31T07:16:11;4.20;;;3.33;;
16870;SDS011;8552;48.120;-1.456;2022-07-31T07:18:37;5.65;;;3.75;;
16870;SDS011;8552;48.120;-1.456;2022-07-31T07:21:03;4.13;;;3.65;;
16870;SDS011;8552;48.120;-1.456;2022-07-31T07:23:29;5.13;;;3.95;;
16870;SDS011;8552;48.120;-1.456;2022-07-31T07:25:55;6.53;;;4.10;;
16870;SDS011;8552;48.120;-1.456;2022-07-31T07:28:21;4.22;;;3.83;;
16870;SDS011;8552;48.120;-1.456;2022-07-31T07:30:47;4.60;;;3.88;;
16870;SDS011;8552;48.120;-1.456;2022-07-31T07:33:12;5.70;;;3.92;;
16870;SDS011;8552;48.120;-1.456;2022-07-31T07:35:38;6.18;;;4.47;;
16870;SDS011;8552;48.120;-1.456;2022-07-31T07:38:04;4.13;;;3.72;;
16870;SDS011;8552;48.120;-1.456;2022-07-31T07:40:30;4.22;;;3.50;;
16870;SDS011;8552;48.120;-1.456;2022-07-31T07:42:56;4.15;;;3.60;;
16870;SDS011;8552;48.120;-1.456;2022-07-31T07:45:22;4.88;;;3.22;;
16870;SDS011;8552;48.120;-1.456;2022-07-31T07:47:48;4.20;;;3.90;;
16870;SDS011;8552;48.120;-1.456;2022-07-31T07:50:14;4.82;;;3.85;;
16870;SDS011;8552;48.120;-1.456;2022-07-31T07:52:40;5.32;;;3.88;;
16870;SDS011;8552;48.120;-1.456;2022-07-31T07:55:06;4.38;;;3.97;;
16870;SDS011;8552;48.120;-1.456;2022-07-31T07:57:33;4.15;;;3.85;;
16870;SDS011;8552;48.120;-1.456;2022-07-31T08:00:00;4.28;;;3.80;;
16870;SDS011;8552;48.120;-1.456;2022-07-31T08:02:28;3.92;;;3.38;;
16870;SDS011;8552;48.120;-1.456;2022-07-31T08:04:54;5.50;;;3.83;;
16870;SDS011;8552;48.120;-1.456;2022-07-31T08:07:29;4.85;;;3.50;;
16870;SDS011;8552;48.120;-1.456;2022-07-31T08:09:57;4.95;;;3.97;;
16870;SDS011;8552;48.120;-1.456;2022-07-31T08:12:24;4.70;;;4.15;;
16870;SDS011;8552;48.120;-1.456;2022-07-31T08:14:50;3.72;;;3.42;;
16870;SDS011;8552;48.120;-1.456;2022-07-31T08:17:16;6.15;;;4.25;;
16870;SDS011;8552;48.120;-1.456;2022-07-31T08:19:42;4.47;;;3.50;;
16870;SDS011;8552;48.120;-1.456;2022-07-31T08:22:07;4.32;;;3.92;;
16870;SDS011;8552;48.120;-1.456;2022-07-31T08:24:33;4.28;;;3.88;;
16870;SDS011;8552;48.120;-1.456;2022-07-31T08:26:59;4.05;;;3.75;;
16870;SDS011;8552;48.120;-1.456;2022-07-31T08:29:44;4.72;;;3.63;;
16870;SDS011;8552;48.120;-1.456;2022-07-31T08:32:10;4.10;;;3.70;;
16870;SDS011;8552;48.120;-1.456;2022-07-31T08:34:36;3.72;;;3.38;;
16870;SDS011;8552;48.120;-1.456;2022-07-31T08:37:02;5.45;;;4.13;;
16870;SDS011;8552;48.120;-1.456;2022-07-31T08:39:30;4.00;;;3.70;;
16870;SDS011;8552;48.120;-1.456;2022-07-31T08:41:56;4.30;;;3.90;;
16870;SDS011;8552;48.120;-1.456;2022-07-31T08:44:22;4.35;;;3.75;;
16870;SDS011;8552;48.120;-1.456;2022-07-31T08:46:48;4.70;;;3.85;;
16870;SDS011;8552;48.120;-1.456;2022-07-31T08:49:16;4.18;;;3.65;;
16870;SDS011;8552;48.120;-1.456;2022-07-31T08:51:42;4.47;;;3.55;;
16870;SDS011;8552;48.120;-1.456;2022-07-31T08:54:09;6.32;;;4.00;;
16870;SDS011;8552;48.120;-1.456;2022-07-31T08:56:38;3.92;;;3.60;;
16870;SDS011;8552;48.120;-1.456;2022-07-31T08:59:05;4.30;;;3.78;;
16870;SDS011;8552;48.120;-1.456;2022-07-31T09:01:32;4.38;;;3.88;;
16870;SDS011;8552;48.120;-1.456;2022-07-31T09:03:59;4.60;;;3.92;;
16870;SDS011;8552;48.120;-1.456;2022-07-31T09:06:25;3.65;;;3.35;;
16870;SDS011;8552;48.120;-1.456;2022-07-31T09:08:51;5.10;;;3.47;;
16870;SDS011;8552;48.120;-1.456;2022-07-31T09:11:16;4.88;;;3.38;;
16870;SDS011;8552;48.120;-1.456;2022-07-31T09:13:52;3.97;;;3.35;;
16870;SDS011;8552;48.120;-1.456;2022-07-31T09:16:19;3.70;;;3.40;;
16870;SDS011;8552;48.120;-1.456;2022-07-31T09:18:56;5.25;;;3.40;;
16870;SDS011;8552;48.120;-1.456;2022-07-31T09:21:22;4.45;;;4.00;;
16870;SDS011;8552;48.120;-1.456;2022-07-31T09:23:48;4.05;;;3.70;;
16870;SDS011;8552;48.120;-1.456;2022-07-31T09:26:14;3.33;;;3.13;;
16870;SDS011;8552;48.120;-1.456;2022-07-31T09:28:41;3.95;;;3.55;;
16870;SDS011;8552;48.120;-1.456;2022-07-31T09:31:08;4.10;;;3.67;;
16870;SDS011;8552;48.120;-1.456;2022-07-31T09:33:35;5.20;;;3.78;;
16870;SDS011;8552;48.120;-1.456;2022-07-31T09:36:05;3.90;;;3.60;;
16870;SDS011;8552;48.120;-1.456;2022-07-31T09:38:31;4.43;;;3.53;;
16870;SDS011;8552;48.120;-1.456;2022-07-31T09:41:18;3.95;;;3.65;;
16870;SDS011;8552;48.120;-1.456;2022-07-31T09:43:54;3.80;;;3.45;;
16870;SDS011;8552;48.120;-1.456;2022-07-31T09:46:23;4.63;;;3.00;;
16870;SDS011;8552;48.120;-1.456;2022-07-31T09:48:50;3.72;;;3.42;;
16870;SDS011;8552;48.120;-1.456;2022-07-31T09:51:17;3.80;;;3.50;;
16870;SDS011;8552;48.120;-1.456;2022-07-31T09:53:46;4.65;;;3.85;;
16870;SDS011;8552;48.120;-1.456;2022-07-31T09:56:16;3.90;;;3.50;;
16870;SDS011;8552;48.120;-1.456;2022-07-31T09:58:53;3.60;;;3.30;;
16870;SDS011;8552;48.120;-1.456;2022-07-31T10:01:19;4.38;;;3.97;;
16870;SDS011;8552;48.120;-1.456;2022-07-31T10:03:45;3.72;;;3.42;;
16870;SDS011;8552;48.120;-1.456;2022-07-31T10:06:14;3.13;;;2.83;;
16870;SDS011;8552;48.120;-1.456;2022-07-31T10:08:43;4.28;;;3.60;;
16870;SDS011;8552;48.120;-1.456;2022-07-31T10:11:10;3.97;;;3.63;;
16870;SDS011;8552;48.120;-1.456;2022-07-31T10:13:39;4.30;;;3.90;;
16870;SDS011;8552;48.120;-1.456;2022-07-31T10:16:10;3.83;;;3.15;;
16870;SDS011;8552;48.120;-1.456;2022-07-31T10:18:37;3.63;;;3.33;;
16870;SDS011;8552;48.120;-1.456;2022-07-31T10:21:05;3.90;;;3.50;;
16870;SDS011;8552;48.120;-1.456;2022-07-31T10:23:38;3.80;;;3.50;;
16870;SDS011;8552;48.120;-1.456;2022-07-31T10:26:05;4.10;;;3.53;;
16870;SDS011;8552;48.120;-1.456;2022-07-31T10:28:31;3.58;;;3.28;;
16870;SDS011;8552;48.120;-1.456;2022-07-31T10:31:00;4.40;;;3.75;;
16870;SDS011;8552;48.120;-1.456;2022-07-31T10:33:26;3.85;;;3.55;;
16870;SDS011;8552;48.120;-1.456;2022-07-31T10:36:02;4.70;;;3.80;;
16870;SDS011;8552;48.120;-1.456;2022-07-31T10:41:25;4.70;;;3.30;;
16870;SDS011;8552;48.120;-1.456;2022-07-31T10:47:15;4.25;;;3.88;;
16870;SDS011;8552;48.120;-1.456;2022-07-31T10:49:42;3.22;;;2.97;;
16870;SDS011;8552;48.120;-1.456;2022-07-31T10:52:12;3.60;;;3.30;;
16870;SDS011;8552;48.120;-1.456;2022-07-31T10:54:40;3.35;;;3.05;;
16870;SDS011;8552;48.120;-1.456;2022-07-31T10:57:07;4.20;;;3.83;;
16870;SDS011;8552;48.120;-1.456;2022-07-31T10:59:33;3.58;;;3.13;;
16870;SDS011;8552;48.120;-1.456;2022-07-31T11:01:58;3.55;;;3.17;;
16870;SDS011;8552;48.120;-1.456;2022-07-31T11:04:28;3.72;;;3.42;;
16870;SDS011;8552;48.120;-1.456;2022-07-31T11:06:58;3.50;;;3.20;;
16870;SDS011;8552;48.120;-1.456;2022-07-31T11:09:25;4.13;;;3.45;;
16870;SDS011;8552;48.120;-1.456;2022-07-31T11:11:52;3.80;;;3.50;;
16870;SDS011;8552;48.120;-1.456;2022-07-31T11:14:29;3.67;;;3.38;;
16870;SDS011;8552;48.120;-1.456;2022-07-31T11:16:59;4.68;;;3.20;;
16870;SDS011;8552;48.120;-1.456;2022-07-31T11:19:24;3.58;;;3.28;;
16870;SDS011;8552;48.120;-1.456;2022-07-31T11:22:10;3.42;;;3.13;;
16870;SDS011;8552;48.120;-1.456;2022-07-31T11:24:37;3.47;;;3.15;;
16870;SDS011;8552;48.120;-1.456;2022-07-31T11:27:03;5.07;;;3.90;;
16870;SDS011;8552;48.120;-1.456;2022-07-31T11:29:36;3.40;;;3.10;;
16870;SDS011;8552;48.120;-1.456;2022-07-31T11:34:51;3.75;;;3.45;;
16870;SDS011;8552;48.120;-1.456;2022-07-31T11:37:21;3.45;;;3.17;;
16870;SDS011;8552;48.120;-1.456;2022-07-31T11:39:49;3.10;;;2.90;;
16870;SDS011;8552;48.120;-1.456;2022-07-31T11:42:16;3.47;;;3.20;;
16870;SDS011;8552;48.120;-1.456;2022-07-31T11:44:43;3.20;;;2.90;;
16870;SDS011;8552;48.120;-1.456;2022-07-31T11:47:09;3.65;;;3.35;;
16870;SDS011;8552;48.120;-1.456;2022-07-31T11:49:35;3.47;;;3.00;;
16870;SDS011;8552;48.120;-1.456;2022-07-31T11:52:02;3.10;;;2.80;;
16870;SDS011;8552;48.120;-1.456;2022-07-31T11:54:30;3.53;;;3.22;;
16870;SDS011;8552;48.120;-1.456;2022-07-31T11:56:56;3.03;;;2.83;;
16870;SDS011;8552;48.120;-1.456;2022-07-31T11:59:29;3.33;;;3.03;;
16870;SDS011;8552;48.120;-1.456;2022-07-31T12:02:04;3.65;;;3.35;;
16870;SDS011;8552;48.120;-1.456;2022-07-31T12:04:32;3.50;;;3.30;;
16870;SDS011;8552;48.120;-1.456;2022-07-31T12:07:00;3.88;;;3.40;;
16870;SDS011;8552;48.120;-1.456;2022-07-31T12:09:26;3.80;;;3.50;;
16870;SDS011;8552;48.120;-1.456;2022-07-31T12:11:52;3.30;;;3.00;;
16870;SDS011;8552;48.120;-1.456;2022-07-31T12:14:32;2.92;;;2.72;;
16870;SDS011;8552;48.120;-1.456;2022-07-31T12:17:03;3.67;;;3.13;;
16870;SDS011;8552;48.120;-1.456;2022-07-31T12:19:31;3.33;;;3.03;;
16870;SDS011;8552;48.120;-1.456;2022-07-31T12:22:10;3.47;;;3.17;;
16870;SDS011;8552;48.120;-1.456;2022-07-31T12:24:38;2.80;;;2.70;;
16870;SDS011;8552;48.120;-1.456;2022-07-31T12:27:04;3.05;;;2.85;;
16870;SDS011;8552;48.120;-1.456;2022-07-31T12:29:31;3.67;;;3.38;;
16870;SDS011;8552;48.120;-1.456;2022-07-31T12:32:02;3.38;;;3.05;;
16870;SDS011;8552;48.120;-1.456;2022-07-31T12:34:29;3.25;;;3.05;;
16870;SDS011;8552;48.120;-1.456;2022-07-31T12:36:59;3.20;;;3.00;;
16870;SDS011;8552;48.120;-1.456;2022-07-31T12:39:33;3.38;;;2.78;;
16870;SDS011;8552;48.120;-1.456;2022-07-31T12:42:28;3.47;;;3.17;;
16870;SDS011;8552;48.120;-1.456;2022-07-31T12:44:56;3.47;;;3.22;;
16870;SDS011;8552;48.120;-1.456;2022-07-31T12:47:23;2.85;;;2.55;;
16870;SDS011;8552;48.120;-1.456;2022-07-31T12:49:50;3.50;;;3.20;;
16870;SDS011;8552;48.120;-1.456;2022-07-31T12:52:16;3.53;;;3.22;;
16870;SDS011;8552;48.120;-1.456;2022-07-31T12:54:43;3.63;;;2.85;;
16870;SDS011;8552;48.120;-1.456;2022-07-31T12:57:09;3.03;;;2.72;;
16870;SDS011;8552;48.120;-1.456;2022-07-31T12:59:35;2.95;;;2.75;;
16870;SDS011;8552;48.120;-1.456;2022-07-31T13:02:01;3.20;;;3.00;;
16870;SDS011;8552;48.120;-1.456;2022-07-31T13:04:28;3.15;;;2.95;;
16870;SDS011;8552;48.120;-1.456;2022-07-31T13:06:53;4.25;;;3.70;;
16870;SDS011;8552;48.120;-1.456;2022-07-31T13:09:19;3.13;;;2.92;;
16870;SDS011;8552;48.120;-1.456;2022-07-31T13:11:45;3.40;;;3.20;;
16870;SDS011;8552;48.120;-1.456;2022-07-31T13:14:11;3.30;;;3.05;;
16870;SDS011;8552;48.120;-1.456;2022-07-31T13:16:37;3.08;;;2.88;;
16870;SDS011;8552;48.120;-1.456;2022-07-31T13:19:02;3.67;;;3.38;;
16870;SDS011;8552;48.120;-1.456;2022-07-31T13:21:29;3.30;;;3.03;;
16870;SDS011;8552;48.120;-1.456;2022-07-31T13:23:55;3.28;;;2.97;;
16870;SDS011;8552;48.120;-1.456;2022-07-31T13:26:23;3.03;;;2.83;;
16870;SDS011;8552;48.120;-1.456;2022-07-31T13:28:51;4.00;;;3.70;;
16870;SDS011;8552;48.120;-1.456;2022-07-31T13:31:17;3.25;;;3.05;;
16870;SDS011;8552;48.120;-1.456;2022-07-31T13:33:43;4.60;;;3.38;;
16870;SDS011;8552;48.120;-1.456;2022-07-31T13:36:08;3.10;;;2.90;;
16870;SDS011;8552;48.120;-1.456;2022-07-31T13:38:34;3.45;;;3.22;;
16870;SDS011;8552;48.120;-1.456;2022-07-31T13:41:00;3.88;;;3.50;;
16870;SDS011;8552;48.120;-1.456;2022-07-31T13:43:48;3.65;;;3.40;;
16870;SDS011;8552;48.120;-1.456;2022-07-31T13:46:15;3.42;;;2.70;;
16870;SDS011;8552;48.120;-1.456;2022-07-31T13:48:41;3.47;;;3.28;;
16870;SDS011;8552;48.120;-1.456;2022-07-31T13:51:06;3.40;;;3.20;;
16870;SDS011;8552;48.120;-1.456;2022-07-31T13:53:32;3.15;;;2.85;;
16870;SDS011;8552;48.120;-1.456;2022-07-31T13:55:58;3.55;;;3.25;;
16870;SDS011;8552;48.120;-1.456;2022-07-31T13:58:24;3.63;;;3.33;;
16870;SDS011;8552;48.120;-1.456;2022-07-31T14:00:51;3.65;;;3.45;;
16870;SDS011;8552;48.120;-1.456;2022-07-31T14:03:17;3.60;;;3.33;;
16870;SDS011;8552;48.120;-1.456;2022-07-31T14:05:43;3.65;;;3.45;;
16870;SDS011;8552;48.120;-1.456;2022-07-31T14:08:09;3.95;;;3.65;;
16870;SDS011;8552;48.120;-1.456;2022-07-31T14:10:34;4.03;;;3.70;;
16870;SDS011;8552;48.120;-1.456;2022-07-31T14:13:00;3.80;;;3.60;;
16870;SDS011;8552;48.120;-1.456;2022-07-31T14:15:26;4.05;;;3.85;;
16870;SDS011;8552;48.120;-1.456;2022-07-31T14:17:52;3.67;;;3.38;;
16870;SDS011;8552;48.120;-1.456;2022-07-31T14:20:17;3.35;;;3.15;;
16870;SDS011;8552;48.120;-1.456;2022-07-31T14:22:43;3.67;;;3.42;;
16870;SDS011;8552;48.120;-1.456;2022-07-31T14:25:09;3.30;;;3.05;;
16870;SDS011;8552;48.120;-1.456;2022-07-31T14:27:36;3.20;;;3.00;;
16870;SDS011;8552;48.120;-1.456;2022-07-31T14:30:05;3.97;;;3.67;;
16870;SDS011;8552;48.120;-1.456;2022-07-31T14:32:32;3.90;;;3.63;;
16870;SDS011;8552;48.120;-1.456;2022-07-31T14:34:57;3.80;;;3.50;;
16870;SDS011;8552;48.120;-1.456;2022-07-31T14:37:23;3.97;;;3.58;;
16870;SDS011;8552;48.120;-1.456;2022-07-31T14:39:49;3.85;;;3.55;;
16870;SDS011;8552;48.120;-1.456;2022-07-31T14:42:15;3.92;;;3.72;;
16870;SDS011;8552;48.120;-1.456;2022-07-31T14:44:40;4.75;;;3.80;;
16870;SDS011;8552;48.120;-1.456;2022-07-31T14:47:07;5.55;;;3.60;;
16870;SDS011;8552;48.120;-1.456;2022-07-31T14:49:33;3.65;;;3.38;;
16870;SDS011;8552;48.120;-1.456;2022-07-31T14:51:59;3.75;;;3.55;;
16870;SDS011;8552;48.120;-1.456;2022-07-31T14:54:24;3.60;;;3.30;;
16870;SDS011;8552;48.120;-1.456;2022-07-31T14:56:50;3.58;;;3.35;;
16870;SDS011;8552;48.120;-1.456;2022-07-31T14:59:16;3.85;;;3.65;;
16870;SDS011;8552;48.120;-1.456;2022-07-31T15:01:41;4.38;;;3.83;;
16870;SDS011;8552;48.120;-1.456;2022-07-31T15:04:07;4.53;;;3.65;;